Time;durP1;ratioP1;P1;durP2;ratioP2;P2;SDS_P1;SDS_P2;PMS_P1;PMS_P2;Temp;Humidity;BMP_temperature;BMP_pressure;BME280_temperature;BME280_humidity;BME280_pressure;Samples;Min_cycle;Max_cycle;Signal;HPM_P1;HPM_P2
2023/04/03 00:02:00;;;;;;;2.50;2.30;;;3.60;99.90;;;;;;5033881;28;20202;-68
2023/04/03 00:04:27;;;;;;;2.30;2.10;;;3.60;99.90;;;;;;5034071;28;20202;-68
2023/04/03 00:06:55;;;;;;;3.78;2.65;;;3.70;99.90;;;;;;5033457;28;20221;-68
2023/04/03 00:09:21;;;;;;;2.95;2.38;;;3.70;99.90;;;;;;5033485;28;20213;-67
2023/04/03 00:11:48;;;;;;;2.20;2.00;;;3.60;99.90;;;;;;5033803;28;20202;-67
2023/04/03 00:14:15;;;;;;;2.67;2.47;;;3.70;99.90;;;;;;5033576;28;20271;-67
2023/04/03 00:16:41;;;;;;;2.10;1.88;;;3.70;99.90;;;;;;5033284;28;20248;-67
2023/04/03 00:19:11;;;;;;;2.10;1.95;;;3.60;99.90;;;;;;5033096;28;20293;-67
2023/04/03 00:21:38;;;;;;;3.00;2.05;;;3.60;99.90;;;;;;5033368;28;20205;-67
2023/04/03 00:24:06;;;;;;;2.72;2.53;;;3.50;99.90;;;;;;5033518;28;20210;-67
2023/04/03 00:26:33;;;;;;;1.95;1.85;;;3.50;99.90;;;;;;5034259;28;20222;-67
2023/04/03 00:29:00;;;;;;;2.83;2.55;;;3.50;99.90;;;;;;5032726;28;20228;-68
2023/04/03 00:31:26;;;;;;;2.70;2.40;;;3.40;99.90;;;;;;5033152;28;20734;-66
2023/04/03 00:33:53;;;;;;;2.92;2.45;;;3.40;99.90;;;;;;5033088;28;20213;-67
2023/04/03 00:36:20;;;;;;;4.03;2.35;;;3.40;99.90;;;;;;5033438;28;20696;-68
2023/04/03 00:38:46;;;;;;;6.38;2.58;;;3.40;99.90;;;;;;5032812;28;20248;-68
2023/04/03 00:41:15;;;;;;;2.53;2.30;;;3.40;99.90;;;;;;5033434;28;20259;-66
2023/04/03 00:43:41;;;;;;;5.82;2.50;;;3.20;99.90;;;;;;5033187;28;20206;-65
2023/04/03 00:46:08;;;;;;;3.10;2.80;;;3.20;99.90;;;;;;5032897;28;20225;-67
2023/04/03 00:48:39;;;;;;;3.63;2.17;;;3.20;99.90;;;;;;5032724;28;20198;-67
2023/04/03 00:51:09;;;;;;;4.18;2.22;;;3.20;99.90;;;;;;5032755;28;20732;-66
2023/04/03 00:53:40;;;;;;;3.47;2.58;;;3.20;99.90;;;;;;5033014;28;20918;-67
2023/04/03 00:56:10;;;;;;;3.20;2.50;;;3.20;99.90;;;;;;5032636;28;20908;-67
2023/04/03 00:58:40;;;;;;;2.17;2.00;;;3.10;99.90;;;;;;5004976;28;20234;-65
2023/04/03 01:01:10;;;;;;;2.97;2.35;;;3.10;99.90;;;;;;5029106;28;20209;-67
2023/04/03 01:03:37;;;;;;;2.30;2.10;;;3.00;99.90;;;;;;5032655;28;20209;-67
2023/04/03 01:06:04;;;;;;;2.15;1.83;;;3.00;99.90;;;;;;5032183;28;20245;-67
2023/04/03 01:08:32;;;;;;;2.67;2.45;;;3.00;99.90;;;;;;5032278;28;20206;-67
2023/04/03 01:10:58;;;;;;;2.20;2.00;;;3.00;99.90;;;;;;5017668;28;20206;-67
2023/04/03 01:13:27;;;;;;;2.75;1.92;;;3.00;99.90;;;;;;5012692;28;20202;-66
2023/04/03 01:15:55;;;;;;;2.53;2.10;;;3.00;99.90;;;;;;5012201;28;20625;-68
2023/04/03 01:18:23;;;;;;;2.83;2.25;;;3.00;99.90;;;;;;5012422;28;20207;-68
2023/04/03 01:21:32;;;;;;;2.40;1.85;;;3.00;99.90;;;;;;5012514;28;20212;-67
2023/04/03 01:24:19;;;;;;;2.85;2.55;;;3.00;99.90;;;;;;4987054;28;20214;-68
2023/04/03 01:26:46;;;;;;;3.15;2.28;;;3.00;99.90;;;;;;5011945;28;20226;-67
2023/04/03 01:29:13;;;;;;;3.53;2.35;;;3.00;99.90;;;;;;5012296;28;20209;-67
2023/04/03 01:31:50;;;;;;;2.55;2.10;;;2.90;99.90;;;;;;5012718;28;20206;-68
2023/04/03 01:34:17;;;;;;;3.30;2.20;;;2.90;99.90;;;;;;5012634;28;20724;-67
2023/04/03 01:36:43;;;;;;;2.78;2.35;;;2.80;99.90;;;;;;5016265;28;20218;-68
2023/04/03 01:39:11;;;;;;;2.13;1.92;;;2.80;99.90;;;;;;5030985;28;20205;-68
2023/04/03 01:41:37;;;;;;;3.20;2.50;;;2.80;99.90;;;;;;5031604;28;20202;-67
2023/04/03 01:44:04;;;;;;;2.35;2.13;;;2.80;99.90;;;;;;5031882;28;21051;-67
2023/04/03 01:46:31;;;;;;;3.65;2.05;;;2.70;99.90;;;;;;5031561;28;20272;-66
2023/04/03 01:48:59;;;;;;;3.00;2.55;;;2.80;99.90;;;;;;5025592;28;20609;-68
2023/04/03 01:51:26;;;;;;;2.55;2.15;;;2.80;99.90;;;;;;5012265;28;20210;-68
2023/04/03 01:53:52;;;;;;;2.95;2.20;;;2.70;99.90;;;;;;5025857;28;20205;-68
2023/04/03 01:56:19;;;;;;;1.85;1.75;;;2.70;99.90;;;;;;5032045;28;20221;-68
2023/04/03 01:58:46;;;;;;;2.30;2.10;;;2.70;99.90;;;;;;5031601;28;20202;-68
2023/04/03 02:01:13;;;;;;;2.28;2.03;;;2.70;99.90;;;;;;5031952;28;20613;-67
2023/04/03 02:03:40;;;;;;;3.40;2.72;;;2.70;99.90;;;;;;5003936;28;20214;-67
2023/04/03 02:06:08;;;;;;;2.10;1.90;;;2.80;99.90;;;;;;5011821;28;20595;-68
2023/04/03 02:08:35;;;;;;;2.40;2.00;;;2.80;99.90;;;;;;5011597;28;20206;-66
2023/04/03 02:11:02;;;;;;;2.40;1.80;;;2.80;99.90;;;;;;5011293;28;20210;-67
2023/04/03 02:13:28;;;;;;;2.28;2.03;;;2.80;99.90;;;;;;5011593;28;20249;-66
2023/04/03 02:15:55;;;;;;;2.13;1.92;;;2.80;99.90;;;;;;5010903;28;20229;-67
2023/04/03 02:18:22;;;;;;;2.05;1.92;;;2.80;99.90;;;;;;5011392;28;20210;-68
2023/04/03 02:20:48;;;;;;;2.58;2.20;;;2.80;99.90;;;;;;5011485;28;20202;-67
2023/04/03 02:23:16;;;;;;;2.50;2.15;;;2.80;99.90;;;;;;5011759;28;20202;-67
2023/04/03 02:25:43;;;;;;;3.88;2.70;;;2.80;99.90;;;;;;5003487;28;20229;-66
2023/04/03 02:28:10;;;;;;;4.00;2.75;;;2.80;99.90;;;;;;5011059;28;20328;-68
2023/04/03 02:30:36;;;;;;;2.47;2.22;;;2.80;99.90;;;;;;5085992;22;20244;-64
2023/04/03 02:33:03;;;;;;;2.10;1.90;;;2.80;99.90;;;;;;5030592;28;20202;-64
2023/04/03 02:35:30;;;;;;;1.95;1.70;;;2.90;99.90;;;;;;5029903;28;20225;-64
2023/04/03 02:37:57;;;;;;;2.05;1.92;;;2.90;99.90;;;;;;5030260;28;20205;-64
2023/04/03 02:40:25;;;;;;;2.08;1.88;;;2.90;99.90;;;;;;5030115;28;20202;-64
2023/04/03 02:42:51;;;;;;;8.45;3.10;;;2.90;99.90;;;;;;5030640;28;20209;-64
2023/04/03 02:45:18;;;;;;;2.08;1.88;;;2.90;99.90;;;;;;5029766;28;20206;-64
2023/04/03 02:47:45;;;;;;;2.80;2.25;;;2.90;99.90;;;;;;5030104;28;20586;-64
2023/04/03 02:50:11;;;;;;;3.13;2.22;;;3.00;99.90;;;;;;5030235;28;20726;-64
2023/04/03 02:52:38;;;;;;;2.95;2.47;;;2.90;99.90;;;;;;5030242;28;20213;-64
2023/04/03 02:55:05;;;;;;;2.88;2.25;;;2.90;99.90;;;;;;5030425;28;20209;-65
2023/04/03 02:57:33;;;;;;;2.90;2.53;;;2.90;99.90;;;;;;5030037;28;20627;-64
2023/04/03 03:00:00;;;;;;;1.95;1.85;;;2.90;99.90;;;;;;5030070;28;20205;-64
2023/04/03 03:02:27;;;;;;;2.53;2.30;;;2.90;99.90;;;;;;5029751;28;20475;-65
2023/04/03 03:04:53;;;;;;;3.17;2.88;;;2.90;99.90;;;;;;5030335;28;20209;-64
2023/04/03 03:07:20;;;;;;;2.38;2.10;;;2.90;99.90;;;;;;5029657;28;20563;-64
2023/04/03 03:09:47;;;;;;;3.00;2.40;;;2.90;99.90;;;;;;5030106;28;20268;-65
2023/04/03 03:12:13;;;;;;;2.50;2.30;;;2.90;99.90;;;;;;5030004;28;20206;-65
2023/04/03 03:14:42;;;;;;;2.58;1.85;;;2.90;99.90;;;;;;5030136;28;20251;-64
2023/04/03 03:17:09;;;;;;;3.28;2.28;;;2.90;99.90;;;;;;5029743;28;20218;-64
2023/04/03 03:19:36;;;;;;;3.17;2.45;;;2.90;99.90;;;;;;5029487;28;20206;-65
2023/04/03 03:22:02;;;;;;;2.70;2.08;;;2.90;99.90;;;;;;5030093;28;20200;-64
2023/04/03 03:24:29;;;;;;;2.80;2.08;;;2.90;99.90;;;;;;5029684;28;20660;-64
2023/04/03 03:26:56;;;;;;;2.85;2.33;;;2.80;99.90;;;;;;5029662;28;20228;-64
2023/04/03 03:29:22;;;;;;;2.55;1.95;;;2.80;99.90;;;;;;5029489;28;20205;-65
2023/04/03 03:31:50;;;;;;;1.90;1.70;;;2.80;99.90;;;;;;5029884;28;20252;-64
2023/04/03 03:34:17;;;;;;;2.63;2.15;;;2.70;99.90;;;;;;5037729;28;20208;-64
2023/04/03 03:36:44;;;;;;;2.70;2.50;;;2.70;99.90;;;;;;5029431;28;20210;-65
2023/04/03 03:39:11;;;;;;;4.13;2.20;;;2.70;99.90;;;;;;5029727;28;20271;-64
2023/04/03 03:41:38;;;;;;;2.60;2.40;;;2.70;99.90;;;;;;5029567;28;20668;-64
2023/04/03 03:44:05;;;;;;;2.47;2.28;;;2.70;99.90;;;;;;5029838;28;20198;-64
2023/04/03 03:46:32;;;;;;;2.30;2.10;;;2.70;99.90;;;;;;5028937;28;20724;-64
2023/04/03 03:49:00;;;;;;;2.65;2.45;;;2.70;99.90;;;;;;5029234;28;20673;-64
2023/04/03 03:51:26;;;;;;;2.30;2.10;;;2.70;99.90;;;;;;5029107;28;20576;-64
2023/04/03 03:53:53;;;;;;;2.45;2.25;;;2.70;99.90;;;;;;5029734;28;20198;-64
2023/04/03 03:56:20;;;;;;;2.20;1.98;;;2.80;99.90;;;;;;5028905;28;20217;-65
2023/04/03 03:58:47;;;;;;;2.92;2.20;;;2.80;99.90;;;;;;5026320;28;20198;-64
2023/04/03 04:01:13;;;;;;;3.53;2.05;;;2.80;99.90;;;;;;5027420;28;20197;-64
2023/04/03 04:03:40;;;;;;;3.17;2.58;;;2.80;99.90;;;;;;5030120;28;20477;-65
2023/04/03 04:06:08;;;;;;;3.85;2.08;;;2.80;99.90;;;;;;5031918;28;20592;-64
2023/04/03 04:08:35;;;;;;;1.80;1.50;;;2.80;99.90;;;;;;5031431;28;20240;-63
2023/04/03 04:11:02;;;;;;;2.15;1.95;;;2.80;99.90;;;;;;5032778;28;20198;-66
2023/04/03 04:13:28;;;;;;;3.53;1.75;;;2.80;99.90;;;;;;5031741;28;20201;-65
2023/04/03 04:15:55;;;;;;;1.70;1.60;;;2.80;99.90;;;;;;5031842;28;20604;-65
2023/04/03 04:18:22;;;;;;;2.30;2.10;;;2.80;99.90;;;;;;5032042;28;20457;-65
2023/04/03 04:20:49;;;;;;;2.30;2.10;;;2.90;99.90;;;;;;5031920;28;20201;-66
2023/04/03 04:23:17;;;;;;;3.13;2.22;;;2.90;99.90;;;;;;5031637;28;20198;-65
2023/04/03 04:25:45;;;;;;;3.28;2.03;;;2.90;99.90;;;;;;5031269;28;20631;-66
2023/04/03 04:28:12;;;;;;;2.67;2.47;;;2.90;99.90;;;;;;5031639;28;20312;-66
2023/04/03 04:30:39;;;;;;;2.20;1.75;;;2.90;99.90;;;;;;5032235;28;20218;-66
2023/04/03 04:33:06;;;;;;;2.30;2.10;;;2.90;99.90;;;;;;5032589;28;20206;-66
2023/04/03 04:35:33;;;;;;;2.60;2.25;;;2.90;99.90;;;;;;5033580;28;20309;-66
2023/04/03 04:38:00;;;;;;;2.10;1.63;;;2.90;99.90;;;;;;5052281;28;20197;-66
2023/04/03 04:40:28;;;;;;;2.40;2.20;;;2.90;99.90;;;;;;5035318;28;20194;-66
2023/04/03 04:42:55;;;;;;;2.65;2.42;;;2.80;99.90;;;;;;5045076;28;20201;-66
2023/04/03 04:45:21;;;;;;;2.20;2.00;;;2.80;99.90;;;;;;5052059;28;20200;-66
2023/04/03 04:47:51;;;;;;;2.15;2.05;;;2.80;99.90;;;;;;5040305;28;20700;-66
2023/04/03 04:50:18;;;;;;;3.88;2.65;;;2.80;99.90;;;;;;5040078;28;20679;-66
2023/04/03 04:52:44;;;;;;;2.40;2.20;;;2.90;99.90;;;;;;5052084;28;20664;-66
2023/04/03 04:55:11;;;;;;;2.00;1.80;;;2.80;99.90;;;;;;5052255;28;20209;-66
2023/04/03 04:57:39;;;;;;;2.65;1.75;;;2.80;99.90;;;;;;5051703;28;20209;-66
2023/04/03 05:00:07;;;;;;;2.10;1.90;;;2.80;99.90;;;;;;5037962;28;20226;-66
2023/04/03 05:02:34;;;;;;;2.63;2.30;;;2.80;99.90;;;;;;5032025;28;20606;-66
2023/04/03 05:05:01;;;;;;;2.60;1.85;;;2.80;99.90;;;;;;5045653;28;20231;-66
2023/04/03 05:07:28;;;;;;;2.20;1.35;;;2.80;99.90;;;;;;5051533;28;20228;-66
2023/04/03 05:09:54;;;;;;;1.92;1.80;;;2.80;99.90;;;;;;5039637;28;20197;-66
2023/04/03 05:12:21;;;;;;;2.60;1.85;;;2.70;99.90;;;;;;5040093;28;20197;-67
2023/04/03 05:14:49;;;;;;;1.65;1.55;;;2.70;99.90;;;;;;5042513;28;20205;-66
2023/04/03 05:17:16;;;;;;;2.10;1.60;;;2.70;99.90;;;;;;5051881;28;20217;-67
2023/04/03 05:19:43;;;;;;;3.50;2.22;;;2.80;99.90;;;;;;5051152;28;20201;-66
2023/04/03 05:22:09;;;;;;;2.22;1.38;;;2.80;99.90;;;;;;5051692;28;20205;-66
2023/04/03 05:24:36;;;;;;;1.92;1.67;;;2.90;99.90;;;;;;5035053;28;20598;-66
2023/04/03 05:27:03;;;;;;;2.30;2.10;;;2.90;99.90;;;;;;5038405;28;20231;-66
2023/04/03 05:29:30;;;;;;;3.10;2.20;;;2.90;99.90;;;;;;5031126;28;20225;-66
2023/04/03 05:31:58;;;;;;;2.10;1.80;;;2.90;99.90;;;;;;5031583;28;20744;-66
2023/04/03 05:34:25;;;;;;;2.38;2.17;;;2.90;99.90;;;;;;5031608;28;20652;-66
2023/04/03 05:36:51;;;;;;;2.10;1.98;;;3.00;99.90;;;;;;5031321;28;20222;-67
2023/04/03 05:39:18;;;;;;;2.55;2.08;;;3.00;99.90;;;;;;5031334;28;20276;-67
2023/04/03 05:41:45;;;;;;;2.33;1.70;;;2.90;99.90;;;;;;5039370;28;20209;-66
2023/04/03 05:44:11;;;;;;;2.40;2.20;;;3.00;99.90;;;;;;5045955;28;20366;-66
2023/04/03 05:46:38;;;;;;;3.05;1.70;;;3.00;99.90;;;;;;5041230;28;20247;-67
2023/04/03 05:49:06;;;;;;;1.45;1.35;;;3.00;99.90;;;;;;5031149;28;20214;-66
2023/04/03 05:51:36;;;;;;;2.72;2.03;;;3.10;99.90;;;;;;5048263;28;20207;-67
2023/04/03 05:54:07;;;;;;;3.50;2.00;;;3.10;99.90;;;;;;5051594;28;20204;-66
2023/04/03 05:56:34;;;;;;;3.25;1.95;;;3.20;99.90;;;;;;5050643;28;20223;-68
2023/04/03 05:59:01;;;;;;;2.63;2.20;;;3.20;99.90;;;;;;5050919;28;20205;-66
2023/04/03 06:01:27;;;;;;;3.10;1.88;;;3.20;99.90;;;;;;5050965;28;20198;-67
2023/04/03 06:03:55;;;;;;;3.42;2.47;;;3.20;99.90;;;;;;5034838;28;20660;-66
2023/04/03 06:06:23;;;;;;;2.30;1.63;;;3.20;99.90;;;;;;5050574;28;20221;-66
2023/04/03 06:08:50;;;;;;;1.80;1.58;;;3.20;99.90;;;;;;5050425;28;20224;-66
2023/04/03 06:11:17;;;;;;;2.90;2.10;;;3.20;99.90;;;;;;5050995;28;20267;-65
2023/04/03 06:13:45;;;;;;;1.90;1.77;;;3.20;99.90;;;;;;5050742;28;20201;-66
2023/04/03 06:16:15;;;;;;;2.22;2.03;;;3.10;99.90;;;;;;5050754;28;20735;-66
2023/04/03 06:18:42;;;;;;;2.13;2.00;;;3.20;99.90;;;;;;5050169;28;20288;-66
2023/04/03 06:21:08;;;;;;;1.92;1.73;;;3.20;99.90;;;;;;5050786;28;20193;-66
2023/04/03 06:23:36;;;;;;;3.90;2.28;;;3.20;99.90;;;;;;5050285;28;20197;-66
2023/04/03 06:26:05;;;;;;;1.95;1.83;;;3.30;99.90;;;;;;5050075;28;20573;-66
2023/04/03 06:28:32;;;;;;;2.13;1.95;;;3.30;99.90;;;;;;5049656;28;20765;-66
2023/04/03 06:31:00;;;;;;;2.55;1.75;;;3.40;99.90;;;;;;5030577;28;20198;-66
2023/04/03 06:33:27;;;;;;;2.42;1.92;;;3.40;99.90;;;;;;5030678;28;20286;-66
2023/04/03 06:35:57;;;;;;;4.25;2.20;;;3.60;99.90;;;;;;5050036;28;20275;-67
2023/04/03 06:38:24;;;;;;;3.28;2.22;;;3.60;99.90;;;;;;5050128;28;20668;-66
2023/04/03 06:40:52;;;;;;;5.00;1.70;;;3.70;99.90;;;;;;5050199;28;20209;-66
2023/04/03 06:43:20;;;;;;;1.90;1.70;;;3.80;99.90;;;;;;5050645;28;20551;-66
2023/04/03 06:45:47;;;;;;;2.40;1.85;;;3.80;99.90;;;;;;5047793;28;20263;-66
2023/04/03 06:48:14;;;;;;;2.10;1.92;;;3.90;99.90;;;;;;5030301;28;20218;-66
2023/04/03 06:50:40;;;;;;;1.90;1.80;;;3.80;99.90;;;;;;5031360;28;20288;-66
2023/04/03 06:53:07;;;;;;;3.67;2.13;;;3.70;99.90;;;;;;5037112;28;20198;-67
2023/04/03 06:55:34;;;;;;;2.80;2.30;;;3.80;99.90;;;;;;5046716;28;20609;-66
2023/04/03 06:58:03;;;;;;;2.30;2.10;;;3.90;99.90;;;;;;5041922;28;20193;-66
2023/04/03 07:00:30;;;;;;;2.33;1.88;;;3.90;99.90;;;;;;5050187;28;20197;-66
2023/04/03 07:02:57;;;;;;;2.33;2.10;;;4.10;99.90;;;;;;5050158;28;20209;-67
2023/04/03 07:05:24;;;;;;;1.70;1.60;;;4.10;99.90;;;;;;5049931;28;20220;-66
2023/04/03 07:07:51;;;;;;;2.33;2.10;;;4.10;99.90;;;;;;5041683;28;20350;-66
2023/04/03 07:10:18;;;;;;;2.75;1.80;;;4.10;99.90;;;;;;5043720;28;20644;-67
2023/04/03 07:12:45;;;;;;;6.57;2.60;;;4.10;99.90;;;;;;5039919;28;20204;-67
2023/04/03 07:15:14;;;;;;;2.00;1.88;;;4.10;99.90;;;;;;5044634;28;20633;-66
2023/04/03 07:17:41;;;;;;;3.35;2.30;;;4.10;99.90;;;;;;5047479;28;20201;-67
2023/04/03 07:20:09;;;;;;;3.00;1.70;;;4.20;99.90;;;;;;5049800;28;20204;-66
2023/04/03 07:22:36;;;;;;;4.80;2.45;;;4.30;99.90;;;;;;5049514;28;20201;-66
2023/04/03 07:25:03;;;;;;;2.47;2.00;;;4.30;99.90;;;;;;5037704;28;20603;-67
2023/04/03 07:27:29;;;;;;;2.50;2.20;;;4.30;99.90;;;;;;5045835;28;20240;-66
2023/04/03 07:29:56;;;;;;;1.98;1.77;;;4.30;99.90;;;;;;5029832;28;20217;-67
2023/04/03 07:32:24;;;;;;;3.38;1.77;;;4.40;99.90;;;;;;5029840;28;20229;-67
2023/04/03 07:34:51;;;;;;;2.17;1.98;;;4.50;99.90;;;;;;5040474;28;20205;-66
2023/04/03 07:37:19;;;;;;;2.28;2.00;;;4.50;99.90;;;;;;5049678;28;20228;-66
2023/04/03 07:39:45;;;;;;;2.03;1.80;;;4.60;99.90;;;;;;5051504;28;20205;-66
2023/04/03 07:42:13;;;;;;;2.83;2.13;;;4.70;99.90;;;;;;5042223;28;20202;-66
2023/04/03 07:44:40;;;;;;;2.30;1.80;;;4.80;99.90;;;;;;5050822;28;20239;-67
2023/04/03 07:47:07;;;;;;;2.78;2.35;;;4.90;99.90;;;;;;5049359;28;20704;-66
2023/04/03 07:49:37;;;;;;;3.42;2.33;;;5.00;99.90;;;;;;5049847;28;20700;-66
2023/04/03 07:52:05;;;;;;;2.28;1.77;;;5.20;99.90;;;;;;5026036;28;20204;-66
2023/04/03 07:54:31;;;;;;;1.60;1.50;;;5.40;99.90;;;;;;5033578;28;20297;-67
2023/04/03 07:56:58;;;;;;;2.60;2.40;;;5.20;99.90;;;;;;5033390;28;20224;-67
2023/04/03 07:59:25;;;;;;;2.38;2.17;;;5.30;99.90;;;;;;5040117;28;20201;-67
2023/04/03 08:01:52;;;;;;;2.95;1.77;;;5.30;99.90;;;;;;5052977;28;20212;-66
2023/04/03 08:04:18;;;;;;;2.40;2.10;;;5.40;99.90;;;;;;5053416;28;20579;-67
2023/04/03 08:06:46;;;;;;;2.00;1.90;;;5.40;99.90;;;;;;5044823;28;20224;-66
2023/04/03 08:09:14;;;;;;;2.47;2.22;;;5.70;99.90;;;;;;5044948;28;20220;-66
2023/04/03 08:11:40;;;;;;;3.85;2.13;;;5.70;99.90;;;;;;5044001;28;20320;-66
2023/04/03 08:14:07;;;;;;;2.88;1.88;;;5.70;99.90;;;;;;5033498;28;20202;-66
2023/04/03 08:16:34;;;;;;;2.30;2.00;;;5.80;99.90;;;;;;5032788;28;20224;-67
2023/04/03 08:19:01;;;;;;;2.35;2.15;;;5.90;99.90;;;;;;5032786;28;20209;-66
2023/04/03 08:21:27;;;;;;;2.20;2.00;;;6.20;99.90;;;;;;5032852;28;20205;-66
2023/04/03 08:23:56;;;;;;;2.05;1.90;;;6.40;99.90;;;;;;5032802;28;20247;-67
2023/04/03 08:26:23;;;;;;;2.08;1.88;;;6.40;99.90;;;;;;5032646;28;20222;-67
2023/04/03 08:28:49;;;;;;;2.22;1.70;;;6.30;99.90;;;;;;5040685;28;20723;-67
2023/04/03 08:31:19;;;;;;;5.35;2.00;;;6.30;99.90;;;;;;5200474;22;20229;-66
2023/04/03 08:33:47;;;;;;;2.53;1.80;;;6.30;99.90;;;;;;5041983;28;20202;-66
2023/04/03 08:36:21;;;;;;;1.63;1.52;;;6.30;99.90;;;;;;5038937;28;20274;-66
2023/04/03 08:38:49;;;;;;;2.20;1.77;;;6.30;99.90;;;;;;5051701;28;20501;-66
2023/04/03 08:41:30;;;;;;;4.00;2.60;;;6.40;99.90;;;;;;5038900;28;20204;-67
2023/04/03 08:44:08;;;;;;;2.10;1.90;;;6.40;99.90;;;;;;5050730;28;20280;-68
2023/04/03 08:46:50;;;;;;;1.92;1.83;;;6.40;99.90;;;;;;5041557;28;20256;-67
2023/04/03 08:49:27;;;;;;;2.03;1.83;;;6.70;99.90;;;;;;5047611;28;20540;-66
2023/04/03 08:51:55;;;;;;;3.75;2.00;;;6.80;99.90;;;;;;5049509;28;20590;-67
2023/04/03 08:54:29;;;;;;;3.85;2.67;;;6.90;99.90;;;;;;5033445;28;20256;-67
2023/04/03 08:57:02;;;;;;;2.10;1.83;;;7.00;99.90;;;;;;5035348;28;20699;-66
2023/04/03 08:59:33;;;;;;;2.83;2.58;;;7.00;99.90;;;;;;5037936;28;20194;-67
2023/04/03 09:02:04;;;;;;;3.50;2.17;;;7.30;99.90;;;;;;5035753;28;20582;-66
2023/04/03 09:04:33;;;;;;;2.60;2.40;;;7.50;99.90;;;;;;5045093;28;20201;-67
2023/04/03 09:07:08;;;;;;;2.25;1.70;;;7.80;99.90;;;;;;5040946;28;20358;-66
2023/04/03 09:09:39;;;;;;;2.47;2.00;;;8.00;99.90;;;;;;5040166;28;20220;-66
2023/04/03 09:12:17;;;;;;;1.90;1.70;;;8.20;99.90;;;;;;5044819;28;20201;-66
2023/04/03 09:14:51;;;;;;;5.00;2.65;;;8.40;99.90;;;;;;5044266;28;20668;-66
2023/04/03 09:17:27;;;;;;;4.07;2.47;;;8.70;99.90;;;;;;5039068;28;20217;-66
2023/04/03 09:20:03;;;;;;;3.25;2.47;;;8.90;99.90;;;;;;5032399;28;20602;-65
2023/04/03 09:22:34;;;;;;;2.67;2.00;;;8.80;99.90;;;;;;5048054;28;20259;-67
2023/04/03 09:25:08;;;;;;;2.58;2.20;;;8.40;99.90;;;;;;5044090;28;20207;-66
2023/04/03 09:27:36;;;;;;;2.58;2.10;;;8.10;99.90;;;;;;5044947;28;20239;-66
2023/04/03 09:30:03;;;;;;;2.47;1.85;;;7.80;99.90;;;;;;5051447;28;20587;-66
2023/04/03 09:32:31;;;;;;;2.97;2.67;;;7.50;99.90;;;;;;5052442;28;20201;-66
2023/04/03 09:35:03;;;;;;;3.40;2.28;;;7.20;99.90;;;;;;5052015;28;20211;-66
2023/04/03 09:37:42;;;;;;;3.05;2.03;;;7.10;99.90;;;;;;5043182;28;20228;-66
2023/04/03 09:40:35;;;;;;;2.95;2.35;;;7.00;99.90;;;;;;5044206;28;20201;-66
2023/04/03 09:43:20;;;;;;;1.90;1.80;;;6.80;99.90;;;;;;5035534;28;20236;-66
2023/04/03 09:45:49;;;;;;;1.95;1.70;;;6.70;99.90;;;;;;5043373;28;20252;-67
2023/04/03 09:48:18;;;;;;;1.55;1.45;;;6.70;99.90;;;;;;5043846;28;20197;-68
2023/04/03 09:51:01;;;;;;;2.35;2.00;;;6.70;99.90;;;;;;5043630;28;20205;-68
2023/04/03 09:53:32;;;;;;;2.10;1.90;;;6.80;99.90;;;;;;5043872;28;20296;-67
2023/04/03 09:56:03;;;;;;;3.60;1.75;;;6.90;99.90;;;;;;5051245;28;20232;-68
2023/04/03 09:58:33;;;;;;;2.30;2.08;;;7.10;99.90;;;;;;5045345;28;20202;-68
2023/04/03 10:01:01;;;;;;;1.92;1.70;;;7.30;99.90;;;;;;5030925;28;20267;-67
2023/04/03 10:03:31;;;;;;;1.73;1.63;;;7.60;99.90;;;;;;5038270;28;20292;-67
2023/04/03 10:05:59;;;;;;;2.50;2.13;;;7.60;99.20;;;;;;5040915;28;20228;-68
2023/04/03 10:08:29;;;;;;;2.00;1.80;;;7.50;99.90;;;;;;5031476;28;20202;-67
2023/04/03 10:11:11;;;;;;;2.13;1.92;;;7.30;99.60;;;;;;5048020;28;20197;-67
2023/04/03 10:13:51;;;;;;;2.40;1.90;;;7.10;99.90;;;;;;5040693;28;20285;-67
2023/04/03 10:16:21;;;;;;;1.85;1.75;;;7.00;99.90;;;;;;5033262;28;20231;-68
2023/04/03 10:18:54;;;;;;;3.15;2.17;;;7.20;99.90;;;;;;5040127;28;20194;-68
2023/04/03 10:21:33;;;;;;;2.03;1.83;;;7.30;99.90;;;;;;5036746;28;20205;-67
2023/04/03 10:24:08;;;;;;;2.38;2.17;;;7.30;99.90;;;;;;5034536;28;20205;-67
2023/04/03 10:26:44;;;;;;;2.70;2.03;;;7.30;99.90;;;;;;5051506;28;20221;-67
2023/04/03 10:29:25;;;;;;;3.20;2.00;;;7.20;99.90;;;;;;5023324;28;20220;-66
2023/04/03 10:32:01;;;;;;;1.63;1.50;;;7.10;99.90;;;;;;5040475;28;20204;-66
2023/04/03 10:34:32;;;;;;;2.20;1.88;;;6.70;99.90;;;;;;5051537;28;20220;-66
2023/04/03 10:37:07;;;;;;;2.00;1.60;;;6.70;99.90;;;;;;5042732;28;21020;-65
2023/04/03 10:39:40;;;;;;;1.85;1.75;;;6.60;99.90;;;;;;5044979;28;20205;-66
2023/04/03 10:42:14;;;;;;;1.90;1.58;;;6.50;99.90;;;;;;5040330;28;20201;-66
2023/04/03 10:44:55;;;;;;;2.00;1.73;;;6.60;99.90;;;;;;5031097;28;20201;-66
2023/04/03 10:47:29;;;;;;;1.50;1.40;;;6.80;99.90;;;;;;5031190;28;20252;-66
2023/04/03 10:50:07;;;;;;;2.05;1.33;;;6.70;99.00;;;;;;5030734;28;20252;-66
2023/04/03 10:52:44;;;;;;;1.60;1.50;;;6.60;99.50;;;;;;5031372;28;20204;-66
2023/04/03 10:55:25;;;;;;;1.75;1.60;;;6.50;99.60;;;;;;5031041;28;20202;-66
2023/04/03 10:57:53;;;;;;;2.97;1.55;;;6.40;99.70;;;;;;5030654;28;20201;-66
2023/04/03 11:00:30;;;;;;;1.80;1.70;;;6.30;99.90;;;;;;5036085;28;20208;-66
2023/04/03 11:03:00;;;;;;;2.10;1.70;;;6.30;99.70;;;;;;5050525;28;20668;-67
2023/04/03 11:05:32;;;;;;;3.85;2.03;;;6.20;99.90;;;;;;5051030;28;20197;-66
2023/04/03 11:08:03;;;;;;;3.45;1.80;;;6.30;99.90;;;;;;5048622;28;20224;-66
2023/04/03 11:10:38;;;;;;;3.20;1.90;;;6.40;99.90;;;;;;5031238;28;20272;-66
2023/04/03 11:13:12;;;;;;;2.53;1.77;;;6.50;99.90;;;;;;5033940;28;20278;-66
2023/04/03 11:15:41;;;;;;;3.40;2.10;;;6.50;99.90;;;;;;5035086;28;20259;-66
2023/04/03 11:18:12;;;;;;;2.75;1.65;;;6.40;99.90;;;;;;5034989;28;20407;-67
2023/04/03 11:20:42;;;;;;;2.22;2.03;;;6.30;99.90;;;;;;5035525;28;20252;-67
2023/04/03 11:23:18;;;;;;;3.55;1.98;;;6.20;99.90;;;;;;5044306;28;20198;-66
2023/04/03 11:25:47;;;;;;;2.28;1.67;;;6.10;99.90;;;;;;5034869;28;20597;-66
2023/04/03 11:28:15;;;;;;;1.60;1.50;;;6.10;99.90;;;;;;5038636;28;20201;-66
2023/04/03 11:30:49;;;;;;;6.00;2.00;;;6.00;99.90;;;;;;5054854;28;20328;-67
2023/04/03 11:33:33;;;;;;;3.15;2.20;;;5.90;99.70;;;;;;5054557;28;20212;-66
2023/04/03 11:36:04;;;;;;;3.08;1.60;;;5.90;99.90;;;;;;5044164;28;20640;-66
2023/04/03 11:38:36;;;;;;;1.90;1.60;;;6.00;99.90;;;;;;5034271;28;20198;-66
2023/04/03 11:41:03;;;;;;;2.60;1.30;;;6.00;99.90;;;;;;5036297;28;20198;-66
2023/04/03 11:43:32;;;;;;;2.88;1.67;;;6.00;99.90;;;;;;5054515;28;20243;-67
2023/04/03 11:46:02;;;;;;;1.48;1.35;;;6.00;99.90;;;;;;5053705;28;20224;-66
2023/04/03 11:48:51;;;;;;;1.67;1.58;;;5.90;99.70;;;;;;5048817;28;20247;-67
2023/04/03 11:51:43;;;;;;;1.50;1.40;;;6.00;99.90;;;;;;5030570;28;20220;-67
2023/04/03 11:54:40;;;;;;;1.63;1.45;;;6.00;99.90;;;;;;5043069;28;20216;-66
2023/04/03 11:57:59;;;;;;;1.85;1.65;;;6.00;98.50;;;;;;5033769;28;20229;-66
2023/04/03 12:01:02;;;;;;;1.80;1.20;;;6.00;97.80;;;;;;5041056;28;20523;-66
2023/04/03 12:03:54;;;;;;;4.53;1.85;;;6.10;97.80;;;;;;5028015;28;20205;-67
2023/04/03 12:06:43;;;;;;;1.83;1.60;;;6.30;98.40;;;;;;5033942;28;20232;-67
2023/04/03 12:09:24;;;;;;;2.00;1.65;;;6.60;99.20;;;;;;5033484;28;20217;-66
2023/04/03 12:11:52;;;;;;;2.55;1.75;;;6.70;99.80;;;;;;5033635;28;20225;-66
2023/04/03 12:14:19;;;;;;;2.33;2.13;;;6.80;99.70;;;;;;5033766;28;20202;-67
2023/04/03 12:16:48;;;;;;;1.88;1.70;;;6.80;99.40;;;;;;5033905;28;20228;-66
2023/04/03 12:19:36;;;;;;;2.20;1.90;;;6.90;98.80;;;;;;5047170;28;20201;-66
2023/04/03 12:22:12;;;;;;;2.08;1.58;;;6.70;99.10;;;;;;5036984;28;20214;-64
2023/04/03 12:24:40;;;;;;;2.17;1.40;;;6.60;99.10;;;;;;5034285;28;20205;-65
2023/04/03 12:27:20;;;;;;;2.22;1.70;;;6.50;99.20;;;;;;5042297;28;20452;-65
2023/04/03 12:29:52;;;;;;;2.35;1.50;;;6.40;98.90;;;;;;5041243;28;20588;-66
2023/04/03 12:32:27;;;;;;;3.05;2.05;;;6.30;99.10;;;;;;5050273;28;20211;-67
2023/04/03 12:35:11;;;;;;;3.67;2.20;;;6.30;99.30;;;;;;5042417;28;20224;-65
2023/04/03 12:37:51;;;;;;;4.25;1.73;;;6.30;99.70;;;;;;5107173;22;20354;-64
2023/04/03 12:40:26;;;;;;;9.60;2.33;;;6.30;99.60;;;;;;5037716;28;20618;-64
2023/04/03 12:43:14;;;;;;;2.05;1.90;;;6.40;99.40;;;;;;5039170;28;20212;-65
2023/04/03 12:45:44;;;;;;;2.45;1.60;;;6.50;99.30;;;;;;5039841;28;20708;-67
2023/04/03 12:48:16;;;;;;;14.07;2.20;;;6.70;99.20;;;;;;5051229;28;20212;-68
2023/04/03 12:50:46;;;;;;;3.08;1.95;;;7.00;99.30;;;;;;5059738;28;20217;-65
2023/04/03 12:53:17;;;;;;;2.15;1.40;;;7.30;99.10;;;;;;5060170;28;20213;-65
2023/04/03 12:55:44;;;;;;;2.30;1.45;;;7.70;98.10;;;;;;5044452;28;20228;-64
2023/04/03 12:58:21;;;;;;;1.85;1.70;;;7.90;97.70;;;;;;5043243;28;20198;-67
2023/04/03 13:01:00;;;;;;;2.47;1.75;;;8.00;97.50;;;;;;5052890;28;20208;-65
2023/04/03 13:03:27;;;;;;;2.60;1.40;;;7.80;96.90;;;;;;5039711;28;20255;-66
2023/04/03 13:05:59;;;;;;;1.80;1.70;;;7.60;96.10;;;;;;5038749;28;20225;-66
2023/04/03 13:08:26;;;;;;;1.75;1.20;;;7.50;96.80;;;;;;5037785;28;20204;-67
2023/04/03 13:10:57;;;;;;;1.55;1.45;;;7.50;96.80;;;;;;5038560;28;20320;-66
2023/04/03 13:13:26;;;;;;;5.85;1.55;;;7.60;96.80;;;;;;5031553;28;20202;-66